createdAt,value
2023-01-23T00:04:42.163Z,0.50
2023-01-23T00:09:42.476Z,0.60
2023-01-23T00:14:48.860Z,0.50
2023-01-23T00:19:47.364Z,0.50
2023-01-23T00:24:44.518Z,0.50
2023-01-23T00:29:41.777Z,0.50
2023-01-23T00:34:39.230Z,0.40
2023-01-23T00:39:36.605Z,0.40
2023-01-23T00:44:33.902Z,0.30
2023-01-23T00:49:37.383Z,0.30
2023-01-23T00:54:35.504Z,0.40
2023-01-23T00:59:36.008Z,0.30
2023-01-23T01:04:33.458Z,0.40
2023-01-23T01:09:33.416Z,0.50
2023-01-23T01:14:30.719Z,0.40
2023-01-23T01:19:31.296Z,0.50
2023-01-23T01:24:28.805Z,0.40
2023-01-23T01:29:26.155Z,0.50
2023-01-23T01:34:23.740Z,0.70
2023-01-23T01:39:21.246Z,0.70
2023-01-23T01:44:24.398Z,0.70
2023-01-23T01:49:31.277Z,0.70
2023-01-23T01:54:31.884Z,0.70
2023-01-23T01:59:34.218Z,0.80
2023-01-23T02:04:42.211Z,0.60
2023-01-23T02:09:39.995Z,0.40
2023-01-23T02:14:37.575Z,0.40
2023-01-23T02:19:45.714Z,0.30
2023-01-23T02:24:55.949Z,0.30
2023-01-23T02:29:56.355Z,0.30
2023-01-23T02:34:58.432Z,0.50
2023-01-23T02:39:56.641Z,0.70
2023-01-23T02:44:56.047Z,0.50
2023-01-23T02:49:53.422Z,0.50
2023-01-23T02:54:53.579Z,0.50
2023-01-23T03:00:09.653Z,0.60
2023-01-23T03:05:13.432Z,0.70
2023-01-23T03:10:18.348Z,0.80
2023-01-23T03:15:15.888Z,0.60
2023-01-23T03:20:14.437Z,0.50
2023-01-23T03:25:11.626Z,0.50
2023-01-23T03:30:17.698Z,0.40
2023-01-23T03:35:28.306Z,0.40
2023-01-23T03:40:48.377Z,0.40
2023-01-23T03:45:45.764Z,0.40
2023-01-23T03:50:48.788Z,0.50
2023-01-23T03:55:47.389Z,0.50
2023-01-23T04:00:56.703Z,0.40
2023-01-23T04:06:01.418Z,0.30
2023-01-23T04:11:13.397Z,0.60
2023-01-23T04:16:16.731Z,0.70
2023-01-23T04:21:35.248Z,0.70
2023-01-23T04:26:37.411Z,0.80
2023-01-23T04:31:39.396Z,0.70
2023-01-23T04:36:44.772Z,0.50
2023-01-23T04:42:01.431Z,0.40
2023-01-23T04:47:05.876Z,0.40
2023-01-23T04:58:36.311Z,0.50
2023-01-23T05:03:49.241Z,0.70
2023-01-23T05:08:46.652Z,0.70
2023-01-23T05:14:04.395Z,0.70
2023-01-23T05:24:53.125Z,0.70
2023-01-23T05:30:21.343Z,0.70
2023-01-23T05:35:24.988Z,0.70
2023-01-23T05:40:34.020Z,0.60
2023-01-23T05:45:41.126Z,0.60
2023-01-23T05:51:00.247Z,0.50
2023-01-23T05:56:34.631Z,0.70
2023-01-23T06:01:40.791Z,0.70
2023-01-23T06:17:47.979Z,0.50
2023-01-23T06:23:10.220Z,0.60
2023-01-23T06:28:22.576Z,0.60
2023-01-23T06:39:09.213Z,0.50
2023-01-23T06:44:43.093Z,0.60
2023-01-23T06:49:59.351Z,0.80
2023-01-23T06:55:33.521Z,0.70
2023-01-23T07:00:56.341Z,0.70
2023-01-23T07:06:31.387Z,0.80
2023-01-23T07:11:33.362Z,0.80
2023-01-23T07:16:58.225Z,0.80
2023-01-23T07:33:06.611Z,0.70
2023-01-23T07:38:19.412Z,0.70
2023-01-23T07:43:40.314Z,0.80
2023-01-23T07:48:55.741Z,0.90
2023-01-23T07:54:45.788Z,1.00
2023-01-23T08:05:52.422Z,1.00
2023-01-23T08:11:36.394Z,0.90
2023-01-23T08:16:54.582Z,1.00
2023-01-23T08:51:53.128Z,1.60
2023-01-23T09:15:23.043Z,1.50
2023-01-23T09:26:33.083Z,1.70
2023-01-23T09:32:01.599Z,1.70
2023-01-23T09:56:03.015Z,1.80
2023-01-23T10:01:22.337Z,1.70
2023-01-23T10:12:49.281Z,1.70
2023-01-23T10:24:40.144Z,1.60
2023-01-23T10:36:55.325Z,2.20
2023-01-23T10:42:32.111Z,2.40
2023-01-23T10:47:55.215Z,2.00
2023-01-23T10:58:46.284Z,2.20
2023-01-23T11:03:57.122Z,2.20
2023-01-23T11:14:48.853Z,2.20
2023-01-23T11:20:25.412Z,2.20
2023-01-23T11:31:40.053Z,2.20
2023-01-23T11:37:18.434Z,2.20
2023-01-23T11:42:28.422Z,2.10
2023-01-23T11:59:34.006Z,1.90
2023-01-23T12:11:06.272Z,1.80
2023-01-23T12:16:53.074Z,1.80
2023-01-23T12:22:55.312Z,1.80
2023-01-23T12:28:42.473Z,1.90
2023-01-23T12:34:10.311Z,2.00
2023-01-23T12:51:48.724Z,2.10
2023-01-23T13:15:40.292Z,1.90
2023-01-23T13:21:37.315Z,2.00
2023-01-23T13:27:03.204Z,2.00
2023-01-23T13:32:26.093Z,2.10
2023-01-23T13:37:32.548Z,2.00
2023-01-23T13:42:42.142Z,1.90
2023-01-23T14:36:07.179Z,1.00
2023-01-23T14:41:30.987Z,1.30
2023-01-23T15:04:18.695Z,1.30
2023-01-23T15:15:49.242Z,1.30
2023-01-23T15:21:09.495Z,1.30
2023-01-23T15:26:41.255Z,1.30
2023-01-23T15:32:27.984Z,1.20
2023-01-23T15:50:04.601Z,1.20
2023-01-23T16:12:57.135Z,1.20
2023-01-23T16:17:55.187Z,1.10
2023-01-23T16:22:57.018Z,1.10
2023-01-23T16:27:57.124Z,1.30
2023-01-23T16:32:54.880Z,1.30
2023-01-23T16:37:54.189Z,1.20
2023-01-23T16:42:53.280Z,1.10
2023-01-23T16:47:54.129Z,1.20
2023-01-23T16:53:01.153Z,1.20
2023-01-23T16:57:58.923Z,1.30
2023-01-23T17:02:59.698Z,1.20
2023-01-23T17:07:57.096Z,1.20
2023-01-23T17:12:57.104Z,1.20
2023-01-23T17:17:57.364Z,1.20
2023-01-23T17:22:55.360Z,1.20
2023-01-23T17:28:11.132Z,1.30
2023-01-23T17:33:21.923Z,1.20
2023-01-23T17:38:22.129Z,1.20
2023-01-23T17:43:22.467Z,1.20
2023-01-23T17:48:27.316Z,1.20
2023-01-23T17:53:25.369Z,1.20
2023-01-23T17:58:26.096Z,1.30
2023-01-23T18:03:24.865Z,1.30
2023-01-23T18:08:25.728Z,1.20
2023-01-23T18:13:26.050Z,1.20
2023-01-23T18:18:40.164Z,1.20
2023-01-23T18:23:40.446Z,1.30
2023-01-23T18:29:06.422Z,1.30
2023-01-23T18:34:22.595Z,1.20
2023-01-23T18:39:52.535Z,1.30
2023-01-23T18:45:23.463Z,1.30
2023-01-23T18:50:25.475Z,1.30
2023-01-23T18:55:37.113Z,1.30
2023-01-23T19:00:44.876Z,1.30
2023-01-23T19:05:43.161Z,1.30
2023-01-23T19:10:48.684Z,1.30
2023-01-23T19:16:05.051Z,1.20
2023-01-23T19:21:26.931Z,1.40
2023-01-23T19:26:29.767Z,1.40
2023-01-23T19:31:30.087Z,1.30
2023-01-23T19:36:31.867Z,1.20
2023-01-23T19:41:44.514Z,1.10
2023-01-23T19:46:42.836Z,1.20
2023-01-23T19:51:43.610Z,1.20
2023-01-23T19:56:42.447Z,1.30
2023-01-23T20:01:48.704Z,1.30
2023-01-23T20:06:46.386Z,1.30
2023-01-23T20:11:44.728Z,1.30
2023-01-23T20:16:43.375Z,1.20
2023-01-23T20:21:40.886Z,1.30
2023-01-23T20:26:38.809Z,1.40
2023-01-23T20:31:36.276Z,1.30
2023-01-23T20:36:36.740Z,1.20
2023-01-23T20:41:34.677Z,1.10
2023-01-23T20:46:47.008Z,1.20
2023-01-23T20:51:44.643Z,1.20
2023-01-23T20:56:41.941Z,1.40
2023-01-23T21:01:59.024Z,1.30
2023-01-23T21:06:59.886Z,1.20
2023-01-23T21:11:57.076Z,1.30
2023-01-23T21:16:54.544Z,1.30
2023-01-23T21:21:51.816Z,1.30
2023-01-23T21:26:49.114Z,1.30
2023-01-23T21:31:46.708Z,1.30
2023-01-23T21:36:47.023Z,1.20
2023-01-23T21:41:47.157Z,1.30
2023-01-23T21:46:46.829Z,1.20
2023-01-23T21:51:45.070Z,1.20
2023-01-23T21:56:42.343Z,1.20
2023-01-23T22:01:42.790Z,1.40
2023-01-23T22:06:42.643Z,1.60
2023-01-23T22:11:39.817Z,1.40
2023-01-23T22:16:51.210Z,1.40
2023-01-23T22:21:48.983Z,1.30
2023-01-23T22:26:46.213Z,1.40
2023-01-23T22:31:44.215Z,1.40
2023-01-23T22:36:44.615Z,1.30
2023-01-23T22:41:44.927Z,1.30
2023-01-23T22:46:42.050Z,1.30
2023-01-23T22:51:39.468Z,1.30
2023-01-23T22:56:39.924Z,1.40
2023-01-23T23:01:37.245Z,1.30
2023-01-23T23:06:34.386Z,1.30
2023-01-23T23:11:31.636Z,1.30
2023-01-23T23:16:34.309Z,1.40
2023-01-23T23:21:35.715Z,1.40
2023-01-23T23:26:33.697Z,1.40
2023-01-23T23:31:31.579Z,1.40
2023-01-23T23:36:32.561Z,1.50
2023-01-23T23:41:30.298Z,1.60
2023-01-23T23:46:27.922Z,1.40
2023-01-23T23:51:26.809Z,1.30
2023-01-23T23:56:28.998Z,1.30
